Time;durP1;ratioP1;P1;durP2;ratioP2;P2;SDS_P1;SDS_P2;PMS_P1;PMS_P2;Temp;Humidity;BMP_temperature;BMP_pressure;BME280_temperature;BME280_humidity;BME280_pressure;Samples;Min_cycle;Max_cycle;Signal;HPM_P1;HPM_P2
2022/11/11 00:00:08;;;;;;;1.42;0.10;;;20.50;53.50;;;;;;5108244;28;20032;-59
2022/11/11 00:02:55;;;;;;;0.47;0.10;;;20.60;53.60;;;;;;5107962;28;20040;-59
2022/11/11 00:05:41;;;;;;;0.43;0.15;;;20.60;53.60;;;;;;5107693;28;20043;-58
2022/11/11 00:08:26;;;;;;;4.38;0.63;;;20.50;53.50;;;;;;5108138;28;20442;-59
2022/11/11 00:11:14;;;;;;;0.20;0.10;;;20.50;53.50;;;;;;5107784;28;20515;-58
2022/11/11 00:14:00;;;;;;;0.30;0.00;;;20.50;53.50;;;;;;5100844;28;20044;-59
2022/11/11 00:25:56;;;;;;;0.20;0.10;;;20.50;53.70;;;;;;5091371;28;20048;-58
2022/11/11 00:28:43;;;;;;;0.28;0.10;;;20.50;53.70;;;;;;5091484;28;20044;-59
2022/11/11 00:31:29;;;;;;;0.95;0.10;;;20.50;53.70;;;;;;5091435;28;20173;-59
2022/11/11 00:34:14;;;;;;;1.52;0.10;;;20.50;53.70;;;;;;5090887;28;20040;-58
2022/11/11 00:36:59;;;;;;;0.20;0.00;;;20.40;53.70;;;;;;5091344;28;20040;-58
2022/11/11 00:39:44;;;;;;;0.15;0.10;;;20.50;53.70;;;;;;5091044;28;20044;-58
2022/11/11 00:42:30;;;;;;;1.08;0.10;;;20.40;53.70;;;;;;5091211;28;20420;-58
2022/11/11 00:45:17;;;;;;;0.38;0.10;;;20.40;53.70;;;;;;5091447;28;20442;-58
2022/11/11 00:51:06;;;;;;;1.15;0.10;;;20.40;53.70;;;;;;5129117;27;20460;-57
2022/11/11 00:53:51;;;;;;;0.47;0.00;;;20.40;53.70;;;;;;5111217;28;20035;-58
2022/11/11 00:56:37;;;;;;;1.45;0.10;;;20.40;53.70;;;;;;5092836;28;20056;-58
2022/11/11 00:59:22;;;;;;;1.85;0.10;;;20.40;53.70;;;;;;5111344;28;20039;-57
2022/11/11 01:02:09;;;;;;;1.85;0.10;;;20.40;53.70;;;;;;5111299;28;20051;-57
2022/11/11 01:04:55;;;;;;;1.48;0.00;;;20.40;53.70;;;;;;5090824;28;20698;-59
2022/11/11 01:07:40;;;;;;;0.30;0.10;;;20.40;53.80;;;;;;5090583;28;20044;-58
2022/11/11 01:10:38;;;;;;;2.55;0.10;;;20.40;53.80;;;;;;5094581;28;20043;-59
2022/11/11 01:13:26;;;;;;;0.40;0.10;;;20.40;53.90;;;;;;5110971;28;20150;-58
2022/11/11 01:16:14;;;;;;;1.00;0.10;;;20.30;53.80;;;;;;5111061;28;20048;-59
2022/11/11 01:19:01;;;;;;;1.08;0.30;;;20.40;53.80;;;;;;5110600;28;20039;-59
2022/11/11 01:21:46;;;;;;;4.38;0.82;;;20.30;53.80;;;;;;5111051;28;20214;-58
2022/11/11 01:24:31;;;;;;;2.17;0.10;;;20.30;53.80;;;;;;5110674;28;20043;-58
2022/11/11 01:27:17;;;;;;;0.90;0.88;;;20.40;53.80;;;;;;5110744;28;20044;-59
2022/11/11 01:30:02;;;;;;;0.98;0.65;;;20.30;54.00;;;;;;5111104;28;20039;-59
2022/11/11 01:32:48;;;;;;;2.67;0.40;;;20.30;53.80;;;;;;5110419;28;20055;-60
2022/11/11 01:35:38;;;;;;;0.57;0.20;;;20.30;53.80;;;;;;5111019;28;20032;-58
2022/11/11 01:38:24;;;;;;;1.25;0.10;;;20.30;53.70;;;;;;5110829;28;20409;-58
2022/11/11 01:44:45;;;;;;;1.08;0.10;;;20.30;53.70;;;;;;5110593;28;20035;-56
2022/11/11 01:49:17;;;;;;;0.20;0.10;;;20.30;53.70;;;;;;5110143;28;20100;-57
2022/11/11 01:50:39;;;;;;;0.10;0.10;;;20.30;53.70;;;;;;5110392;28;20039;-57
2022/11/11 01:53:25;;;;;;;2.97;0.10;;;20.30;53.70;;;;;;5110345;28;20039;-57
2022/11/11 01:56:12;;;;;;;0.20;0.20;;;20.30;53.70;;;;;;5110304;28;20039;-57
2022/11/11 01:59:00;;;;;;;;;;;20.30;53.70;;;;;;5111434;28;20040;-58
2022/11/11 02:01:47;;;;;;;2.45;0.75;;;20.20;53.50;;;;;;5110239;28;19954;-58
2022/11/11 02:07:41;;;;;;;0.20;0.10;;;20.20;53.60;;;;;;5110456;28;20047;-55
2022/11/11 02:10:30;;;;;;;1.73;1.05;;;20.20;53.60;;;;;;5109633;28;20051;-53
2022/11/11 02:16:19;;;;;;;3.30;0.10;;;20.20;53.50;;;;;;5109547;28;20044;-57
2022/11/11 02:19:05;;;;;;;1.08;0.10;;;20.20;53.50;;;;;;5109579;28;20040;-52
2022/11/11 02:21:56;;;;;;;0.13;0.10;;;20.20;53.40;;;;;;5109658;28;20114;-55
2022/11/11 02:24:43;;;;;;;0.63;0.20;;;20.20;53.40;;;;;;5109645;28;20500;-57
2022/11/11 02:27:31;;;;;;;1.20;0.43;;;20.20;53.30;;;;;;5109702;28;20130;-54
2022/11/11 02:30:19;;;;;;;0.15;0.10;;;20.20;53.30;;;;;;5109341;28;20044;-57
2022/11/11 02:33:05;;;;;;;3.33;0.10;;;20.20;53.40;;;;;;5090940;28;20428;-55
2022/11/11 02:35:56;;;;;;;0.10;0.10;;;20.20;53.30;;;;;;5109429;28;20031;-57
2022/11/11 02:38:42;;;;;;;0.70;0.30;;;20.20;53.40;;;;;;5091282;28;20208;-57
2022/11/11 02:44:32;;;;;;;0.75;0.75;;;20.20;53.40;;;;;;5088720;28;20396;-58
2022/11/11 02:47:17;;;;;;;0.80;0.10;;;20.20;53.40;;;;;;5088485;28;20048;-58
2022/11/11 02:50:04;;;;;;;0.52;0.10;;;20.20;53.30;;;;;;5088622;28;20696;-57
2022/11/11 02:52:49;;;;;;;0.43;0.10;;;20.20;53.30;;;;;;5105918;28;20067;-58
2022/11/11 02:55:35;;;;;;;0.20;0.20;;;20.20;53.30;;;;;;5123302;27;20043;-58
2022/11/11 02:58:22;;;;;;;0.47;0.07;;;20.20;53.30;;;;;;5129318;27;20570;-55
2022/11/11 03:01:07;;;;;;;0.28;0.10;;;20.10;53.40;;;;;;5129552;27;20152;-57
2022/11/11 03:03:53;;;;;;;1.55;0.10;;;20.10;53.50;;;;;;5129465;27;20051;-58
2022/11/11 03:06:39;;;;;;;0.45;0.10;;;20.20;53.60;;;;;;5129366;27;20067;-57
2022/11/11 03:09:24;;;;;;;1.33;0.20;;;20.10;53.60;;;;;;5129372;27;20077;-56
2022/11/11 03:12:09;;;;;;;1.17;0.57;;;20.10;53.70;;;;;;5110204;27;20036;-55
2022/11/11 03:14:56;;;;;;;0.45;0.20;;;20.10;53.80;;;;;;5108456;28;20047;-55
2022/11/11 03:17:40;;;;;;;;;;;20.10;53.80;;;;;;5109203;28;20120;-57
2022/11/11 03:23:29;;;;;;;0.38;0.10;;;20.10;53.90;;;;;;5108813;28;20043;-57
2022/11/11 03:26:14;;;;;;;0.50;0.20;;;20.10;53.90;;;;;;5108482;28;20437;-57
2022/11/11 03:29:00;;;;;;;1.65;0.20;;;20.10;53.80;;;;;;5085510;28;20059;-58
2022/11/11 03:31:47;;;;;;;0.97;0.10;;;20.10;53.80;;;;;;5088175;28;20504;-57
2022/11/11 03:34:32;;;;;;;0.50;0.10;;;20.10;53.80;;;;;;5088088;28;20415;-58
2022/11/11 03:40:32;;;;;;;1.73;0.13;;;20.10;53.70;;;;;;5025533;28;20049;-56
2022/11/11 03:43:20;;;;;;;0.73;0.20;;;20.10;53.70;;;;;;5024787;28;20053;-55
2022/11/11 03:46:06;;;;;;;1.55;0.20;;;20.10;53.70;;;;;;5025442;28;20128;-60
2022/11/11 03:48:53;;;;;;;1.17;0.30;;;20.10;53.70;;;;;;5025477;28;20057;-59
2022/11/11 03:51:38;;;;;;;;;;;20.10;53.70;;;;;;5025590;28;20506;-58
2022/11/11 03:54:24;;;;;;;0.13;0.10;;;20.10;53.60;;;;;;5025468;28;19921;-57
2022/11/11 04:00:14;;;;;;;0.30;0.13;;;20.00;53.70;;;;;;5029604;28;20042;-58
2022/11/11 04:12:17;;;;;;;0.20;0.20;;;20.00;54.10;;;;;;5028624;28;20135;-60
2022/11/11 04:18:06;;;;;;;0.20;0.10;;;20.00;53.50;;;;;;5091799;28;20588;-57
2022/11/11 04:23:56;;;;;;;0.93;0.20;;;20.00;53.50;;;;;;5091689;28;20036;-56
2022/11/11 04:26:41;;;;;;;0.28;0.20;;;20.00;53.50;;;;;;5091400;28;20039;-57
2022/11/11 04:29:30;;;;;;;0.65;0.10;;;20.00;53.40;;;;;;5091652;28;20072;-56
2022/11/11 04:32:34;;;;;;;1.10;0.25;;;20.00;53.50;;;;;;5091695;28;20044;-56
2022/11/11 04:35:22;;;;;;;1.50;0.30;;;20.00;53.50;;;;;;5091529;28;20040;-56
2022/11/11 04:41:13;;;;;;;0.73;0.22;;;20.00;53.50;;;;;;5101599;28;20039;-57
2022/11/11 04:47:01;;;;;;;0.30;0.20;;;20.00;53.40;;;;;;5111704;28;20046;-58
2022/11/11 04:49:47;;;;;;;0.60;0.60;;;19.90;53.50;;;;;;5111890;28;20043;-58
2022/11/11 04:52:32;;;;;;;1.42;0.43;;;19.90;53.50;;;;;;5110784;28;20044;-58
2022/11/11 04:58:24;;;;;;;0.50;0.13;;;20.00;53.60;;;;;;5110382;28;20044;-61
2022/11/11 05:01:10;;;;;;;0.52;0.28;;;19.90;53.60;;;;;;5110817;28;20193;-58
2022/11/11 05:03:54;;;;;;;0.93;0.32;;;19.90;53.50;;;;;;5118433;28;20082;-57
2022/11/11 05:09:43;;;;;;;1.80;0.68;;;19.90;53.40;;;;;;5088845;28;20132;-58
2022/11/11 05:12:29;;;;;;;0.65;0.10;;;19.90;53.40;;;;;;5108588;28;20050;-62
2022/11/11 05:21:25;;;;;;;0.30;0.25;;;19.90;53.40;;;;;;5109902;28;20051;-58
2022/11/11 05:27:26;;;;;;;0.20;0.20;;;19.90;53.40;;;;;;5046536;28;20045;-56
2022/11/11 05:30:15;;;;;;;0.40;0.10;;;19.90;53.30;;;;;;5046600;28;20072;-58
2022/11/11 05:33:02;;;;;;;0.70;0.30;;;19.90;53.30;;;;;;5046591;28;20048;-54
2022/11/11 05:35:48;;;;;;;0.30;0.10;;;19.90;53.30;;;;;;5046179;28;20045;-54
2022/11/11 05:38:33;;;;;;;0.20;0.15;;;19.90;53.30;;;;;;5046162;28;20053;-56
2022/11/11 05:41:19;;;;;;;0.28;0.20;;;19.90;53.30;;;;;;5046403;28;20049;-59
2022/11/11 05:44:05;;;;;;;1.40;0.20;;;19.90;53.30;;;;;;5046035;28;20445;-57
2022/11/11 05:46:51;;;;;;;0.10;0.10;;;19.90;53.30;;;;;;5046223;28;20057;-55
2022/11/11 05:49:37;;;;;;;2.50;0.10;;;19.90;53.30;;;;;;5046420;28;20052;-56
2022/11/11 05:52:23;;;;;;;4.97;0.30;;;19.90;53.40;;;;;;5007474;28;1107968;-57
2022/11/11 05:55:09;;;;;;;1.17;0.13;;;19.90;53.40;;;;;;5035452;28;20057;-57
2022/11/11 05:57:54;;;;;;;0.43;0.10;;;19.90;53.40;;;;;;5027069;28;20045;-56
2022/11/11 06:00:40;;;;;;;0.37;0.20;;;19.90;53.40;;;;;;5040375;28;20052;-56
2022/11/11 06:03:27;;;;;;;0.67;0.10;;;19.90;53.50;;;;;;5100842;28;20316;-57
2022/11/11 06:06:13;;;;;;;0.60;0.10;;;19.90;53.50;;;;;;5110288;28;20241;-57
2022/11/11 06:08:59;;;;;;;0.70;0.20;;;19.90;53.50;;;;;;5109873;28;20206;-55
2022/11/11 06:11:45;;;;;;;0.40;0.30;;;19.90;54.00;;;;;;5109912;28;20076;-64
2022/11/11 06:14:30;;;;;;;0.65;0.35;;;19.90;53.40;;;;;;5092362;28;20432;-55
2022/11/11 06:17:16;;;;;;;0.30;0.30;;;19.90;53.40;;;;;;5110095;28;20044;-55
2022/11/11 06:20:04;;;;;;;0.40;0.27;;;19.90;53.40;;;;;;5109572;28;20520;-57
2022/11/11 06:22:58;;;;;;;1.25;0.47;;;19.90;53.40;;;;;;5109345;28;20320;-57
2022/11/11 06:28:50;;;;;;;0.38;0.10;;;19.90;53.40;;;;;;5130320;27;20070;-58
2022/11/11 06:31:35;;;;;;;0.10;0.10;;;19.90;53.40;;;;;;5130192;27;20118;-57
2022/11/11 06:34:21;;;;;;;0.10;0.10;;;19.90;53.40;;;;;;5130052;27;20110;-56
2022/11/11 06:37:08;;;;;;;0.40;0.20;;;19.90;53.40;;;;;;5129996;27;20031;-59
2022/11/11 06:39:54;;;;;;;0.47;0.15;;;19.80;53.40;;;;;;5130112;27;20503;-59
2022/11/11 06:42:39;;;;;;;1.27;0.10;;;19.90;53.40;;;;;;5088969;28;20048;-56
2022/11/11 06:45:27;;;;;;;0.63;0.10;;;19.80;53.40;;;;;;5088919;28;20035;-59
2022/11/11 06:48:12;;;;;;;1.50;0.10;;;19.80;53.50;;;;;;5088988;28;20036;-59
2022/11/11 06:51:03;;;;;;;0.08;0.08;;;19.80;53.50;;;;;;5089424;28;20108;-60
2022/11/11 06:53:50;;;;;;;0.20;0.20;;;19.80;53.50;;;;;;5109022;28;20149;-60
2022/11/11 06:56:36;;;;;;;0.17;0.10;;;19.80;53.50;;;;;;5108557;28;20043;-57
2022/11/11 06:59:21;;;;;;;0.35;0.20;;;19.80;53.40;;;;;;5108896;28;20395;-57
2022/11/11 07:02:08;;;;;;;0.45;0.13;;;19.80;53.40;;;;;;5123813;27;20507;-58
2022/11/11 07:04:54;;;;;;;0.52;0.10;;;19.80;53.40;;;;;;5129138;27;20032;-58
2022/11/11 07:07:39;;;;;;;0.10;0.10;;;19.80;53.50;;;;;;5129621;27;20133;-53
2022/11/11 07:10:26;;;;;;;1.13;0.87;;;19.80;53.50;;;;;;5125307;27;20046;-56
2022/11/11 07:13:12;;;;;;;1.08;0.10;;;19.80;53.50;;;;;;5108778;28;20039;-57
2022/11/11 07:15:58;;;;;;;0.30;0.20;;;19.80;54.00;;;;;;5108705;28;20656;-57
2022/11/11 07:18:43;;;;;;;0.75;0.10;;;19.80;53.40;;;;;;5108988;28;20138;-58
2022/11/11 07:21:28;;;;;;;0.20;0.10;;;19.80;53.40;;;;;;5090116;28;20054;-56
2022/11/11 07:24:14;;;;;;;1.60;0.03;;;19.80;53.30;;;;;;5109052;28;20047;-59
2022/11/11 07:27:01;;;;;;;0.43;0.10;;;19.80;53.30;;;;;;5108602;28;20294;-57
2022/11/11 07:29:47;;;;;;;0.20;0.10;;;19.80;53.30;;;;;;5108771;28;20040;-57
2022/11/11 07:32:33;;;;;;;1.13;0.20;;;19.80;53.30;;;;;;5096708;28;20051;-60
2022/11/11 07:35:20;;;;;;;0.10;0.10;;;19.80;53.20;;;;;;5092962;28;20119;-58
2022/11/11 07:38:05;;;;;;;0.40;0.10;;;19.80;53.30;;;;;;5108786;28;20032;-56
2022/11/11 07:40:51;;;;;;;0.43;0.10;;;19.80;53.30;;;;;;5108833;28;20504;-55
2022/11/11 07:43:38;;;;;;;0.50;0.10;;;19.80;53.20;;;;;;5108813;28;20039;-58
2022/11/11 07:46:23;;;;;;;0.70;0.10;;;19.80;53.20;;;;;;5108458;28;20036;-57
2022/11/11 07:49:09;;;;;;;0.73;0.15;;;19.80;53.20;;;;;;5107848;28;20141;-56
2022/11/11 07:51:54;;;;;;;0.85;0.08;;;19.80;53.20;;;;;;5108208;28;20490;-57
2022/11/11 07:54:40;;;;;;;0.98;0.30;;;19.80;53.10;;;;;;5108422;28;20101;-57
2022/11/11 07:57:25;;;;;;;0.25;0.08;;;19.80;53.10;;;;;;5108282;28;20555;-57
2022/11/11 08:00:13;;;;;;;2.05;0.20;;;19.80;53.20;;;;;;5108543;28;20442;-56
2022/11/11 08:02:59;;;;;;;0.30;0.30;;;19.80;53.30;;;;;;5102556;28;20044;-58
2022/11/11 08:05:44;;;;;;;2.95;0.10;;;19.80;53.30;;;;;;5100430;28;20040;-57
2022/11/11 08:08:30;;;;;;;0.15;0.10;;;19.80;53.30;;;;;;5106344;28;20500;-59
2022/11/11 08:11:16;;;;;;;1.27;0.40;;;19.80;53.30;;;;;;5108041;28;20104;-61
2022/11/11 08:14:21;;;;;;;1.02;0.40;;;19.80;53.40;;;;;;5108309;28;20447;-60
2022/11/11 08:17:08;;;;;;;0.30;0.10;;;19.80;53.30;;;;;;5108305;28;20126;-57
2022/11/11 08:19:54;;;;;;;1.17;0.30;;;19.80;53.30;;;;;;5101663;28;20044;-58
2022/11/11 08:22:40;;;;;;;0.10;0.10;;;19.80;53.20;;;;;;5093521;28;20040;-58
2022/11/11 08:25:27;;;;;;;0.25;0.10;;;19.80;53.10;;;;;;5094311;28;20036;-59
2022/11/11 08:28:12;;;;;;;;;;;19.80;53.10;;;;;;5108128;28;20036;-58
2022/11/11 08:31:00;;;;;;;0.13;0.10;;;19.80;53.10;;;;;;5088224;28;19928;-58
2022/11/11 08:33:47;;;;;;;5.38;1.30;;;19.80;53.20;;;;;;5094220;28;20036;-59
2022/11/11 08:36:33;;;;;;;4.00;0.10;;;19.80;53.20;;;;;;5107950;28;20066;-58
2022/11/11 08:39:19;;;;;;;0.80;0.10;;;19.80;53.50;;;;;;5107521;28;20041;-57
2022/11/11 08:42:06;;;;;;;2.85;1.20;;;19.90;53.60;;;;;;5107163;28;20110;-57
2022/11/11 08:44:51;;;;;;;;;;;19.90;53.70;;;;;;5108555;28;20047;-59
2022/11/11 08:47:37;;;;;;;3.15;0.10;;;19.90;53.60;;;;;;5110100;28;20394;-58
2022/11/11 08:50:24;;;;;;;0.98;0.68;;;19.90;53.80;;;;;;5111443;28;20044;-58
2022/11/11 08:53:10;;;;;;;0.63;0.63;;;20.00;53.80;;;;;;5111360;28;20748;-57
2022/11/11 08:55:56;;;;;;;3.53;0.20;;;20.00;53.70;;;;;;5111558;28;20132;-57
2022/11/11 08:58:41;;;;;;;1.48;0.10;;;20.10;53.70;;;;;;5111418;28;20039;-57
2022/11/11 09:01:26;;;;;;;0.65;0.20;;;20.10;53.60;;;;;;5111251;28;20043;-57
2022/11/11 09:04:12;;;;;;;0.40;0.15;;;20.10;53.60;;;;;;5111487;28;20430;-57
2022/11/11 09:06:59;;;;;;;0.75;0.20;;;20.10;53.50;;;;;;5131392;27;20080;-58
2022/11/11 09:09:44;;;;;;;2.55;0.30;;;20.20;53.50;;;;;;5090811;28;20055;-58
2022/11/11 09:12:30;;;;;;;0.73;0.10;;;20.20;53.40;;;;;;5109972;28;20503;-58
2022/11/11 09:15:15;;;;;;;0.20;0.10;;;20.20;53.30;;;;;;5111184;28;20039;-59
2022/11/11 09:18:02;;;;;;;1.08;0.10;;;20.20;53.30;;;;;;5100086;28;20115;-58
2022/11/11 09:20:47;;;;;;;0.70;0.10;;;20.30;53.30;;;;;;5110875;28;20039;-58
2022/11/11 09:23:34;;;;;;;1.05;0.10;;;20.30;53.20;;;;;;5111055;28;20048;-60
2022/11/11 09:26:20;;;;;;;0.50;0.10;;;20.30;53.20;;;;;;5110832;28;20047;-59
2022/11/11 09:29:05;;;;;;;5.20;0.32;;;20.30;53.10;;;;;;5111003;28;20046;-57
2022/11/11 09:31:51;;;;;;;0.50;0.17;;;20.30;53.00;;;;;;5110534;28;20043;-56
2022/11/11 09:34:36;;;;;;;2.55;0.10;;;20.30;53.00;;;;;;5110396;28;20071;-57
2022/11/11 09:37:22;;;;;;;0.30;0.10;;;20.40;53.10;;;;;;5110817;28;20070;-55
2022/11/11 09:40:17;;;;;;;0.13;0.10;;;20.40;53.00;;;;;;5110689;28;20044;-55
2022/11/11 09:43:10;;;;;;;1.55;0.10;;;20.40;52.90;;;;;;5110319;28;20040;-55
2022/11/11 09:46:10;;;;;;;0.10;0.10;;;20.40;53.00;;;;;;5110332;28;20035;-58
2022/11/11 09:49:34;;;;;;;2.40;0.10;;;20.50;53.00;;;;;;5110860;28;20039;-58
2022/11/11 09:52:23;;;;;;;2.72;0.20;;;20.50;52.80;;;;;;5047162;28;20093;-59
2022/11/11 09:55:17;;;;;;;1.63;0.10;;;20.50;53.00;;;;;;5046433;28;20049;-57
2022/11/11 09:58:06;;;;;;;9.13;0.47;;;20.50;52.90;;;;;;5027516;28;20484;-57
2022/11/11 10:00:58;;;;;;;2.10;0.13;;;20.50;52.90;;;;;;5026977;28;20056;-57
2022/11/11 10:03:48;;;;;;;6.85;0.30;;;20.50;52.90;;;;;;5027102;28;20045;-56
2022/11/11 10:06:35;;;;;;;5.57;0.88;;;20.60;53.00;;;;;;5010361;28;20053;-56
2022/11/11 10:09:27;;;;;;;0.55;0.20;;;20.60;53.00;;;;;;5027189;28;20096;-56
2022/11/11 10:12:15;;;;;;;2.28;0.30;;;20.60;53.00;;;;;;5045635;28;20053;-59
2022/11/11 10:15:01;;;;;;;2.40;0.73;;;20.60;53.60;;;;;;5046618;28;20052;-59
2022/11/11 10:17:59;;;;;;;2.25;0.40;;;20.60;53.00;;;;;;5046839;28;20521;-58
2022/11/11 10:20:52;;;;;;;2.72;0.30;;;20.60;53.00;;;;;;5043168;28;20049;-59
2022/11/11 10:23:38;;;;;;;6.13;0.30;;;20.60;53.10;;;;;;5026630;28;20058;-59
2022/11/11 10:26:31;;;;;;;5.35;0.60;;;20.60;53.20;;;;;;5026596;28;20057;-60
2022/11/11 10:29:20;;;;;;;2.45;0.95;;;20.60;53.50;;;;;;5089003;28;20046;-60
2022/11/11 10:32:12;;;;;;;4.65;0.68;;;20.70;54.20;;;;;;5089417;28;20036;-56
2022/11/11 10:35:12;;;;;;;6.70;0.70;;;20.70;54.80;;;;;;5089075;28;20125;-59
2022/11/11 10:38:12;;;;;;;2.15;1.00;;;20.70;56.00;;;;;;5089200;28;20044;-57
2022/11/11 10:41:03;;;;;;;3.55;1.25;;;20.70;53.40;;;;;;5097732;28;20051;-58
2022/11/11 10:43:49;;;;;;;4.88;1.02;;;20.30;51.50;;;;;;5108963;28;20109;-58
2022/11/11 10:46:42;;;;;;;2.67;0.77;;;19.70;51.90;;;;;;5088777;28;20044;-57
2022/11/11 10:49:32;;;;;;;1.52;1.42;;;19.20;51.70;;;;;;5089122;28;20326;-57
2022/11/11 10:52:22;;;;;;;2.45;0.75;;;18.80;52.20;;;;;;5101302;28;20040;-57
2022/11/11 10:55:11;;;;;;;8.98;1.25;;;18.40;52.80;;;;;;5106668;28;20055;-53
2022/11/11 10:58:00;;;;;;;1.23;0.50;;;18.10;53.30;;;;;;5106718;27;20047;-51
2022/11/11 11:00:49;;;;;;;2.05;0.40;;;17.70;53.50;;;;;;5107513;28;20043;-50
2022/11/11 11:03:40;;;;;;;2.50;0.60;;;17.50;53.90;;;;;;5105893;28;20039;-53
2022/11/11 11:06:29;;;;;;;2.13;0.20;;;17.30;54.20;;;;;;5107130;28;20031;-51
2022/11/11 11:09:19;;;;;;;1.25;0.63;;;17.00;54.30;;;;;;5106074;28;20396;-54
2022/11/11 11:12:10;;;;;;;2.97;0.40;;;16.90;54.60;;;;;;5102683;28;20043;-53
2022/11/11 11:15:02;;;;;;;3.00;0.40;;;16.70;54.90;;;;;;5106854;28;20571;-52
2022/11/11 11:17:54;;;;;;;1.00;0.40;;;16.50;55.30;;;;;;5108570;28;20058;-54
2022/11/11 11:20:55;;;;;;;1.83;0.43;;;16.40;55.70;;;;;;5108662;28;20148;-51
2022/11/11 11:23:43;;;;;;;5.25;0.50;;;16.40;58.30;;;;;;5101436;28;20035;-51
2022/11/11 11:26:44;;;;;;;1.48;0.30;;;16.60;59.90;;;;;;5087715;28;20123;-55
2022/11/11 11:29:33;;;;;;;4.70;0.20;;;16.90;60.60;;;;;;5088183;28;20528;-49
2022/11/11 11:32:20;;;;;;;6.60;0.20;;;17.10;60.60;;;;;;5088003;28;20040;-51
2022/11/11 11:35:06;;;;;;;1.13;0.20;;;17.40;60.60;;;;;;5087833;28;20409;-52
2022/11/11 11:37:53;;;;;;;1.85;0.10;;;17.70;60.50;;;;;;5102679;28;20052;-50
2022/11/11 11:40:50;;;;;;;2.65;0.30;;;17.90;60.30;;;;;;5108389;28;20036;-54
2022/11/11 11:43:38;;;;;;;1.02;0.30;;;18.10;60.10;;;;;;5108553;28;20039;-49
2022/11/11 11:46:28;;;;;;;1.27;0.30;;;18.30;59.80;;;;;;5108244;28;20036;-50
2022/11/11 11:49:26;;;;;;;7.15;0.30;;;18.50;59.60;;;;;;5108083;28;20035;-51
2022/11/11 11:52:20;;;;;;;2.63;0.10;;;18.60;59.30;;;;;;5107679;28;20484;-53
2022/11/11 11:55:15;;;;;;;1.40;0.10;;;18.80;59.00;;;;;;5107864;28;20040;-50
2022/11/11 11:58:20;;;;;;;4.50;0.45;;;19.00;58.60;;;;;;5108271;28;20043;-55
2022/11/11 12:01:11;;;;;;;2.30;0.20;;;19.10;58.20;;;;;;5108083;28;20496;-55
2022/11/11 12:04:37;;;;;;;0.55;0.20;;;19.20;57.90;;;;;;5108229;28;20058;-52
2022/11/11 12:07:49;;;;;;;1.45;0.20;;;19.50;57.70;;;;;;5108243;28;20051;-55
2022/11/11 12:10:45;;;;;;;1.55;0.10;;;19.60;57.50;;;;;;5108021;28;20480;-52
2022/11/11 12:13:39;;;;;;;1.67;0.20;;;19.70;57.20;;;;;;5108591;28;20036;-52
2022/11/11 12:16:30;;;;;;;2.90;0.30;;;19.90;57.00;;;;;;5108545;28;20043;-56
2022/11/11 12:19:34;;;;;;;0.57;0.32;;;20.00;56.80;;;;;;5110099;28;20039;-55
2022/11/11 12:22:36;;;;;;;0.43;0.20;;;20.20;56.40;;;;;;5108486;28;20040;-51
2022/11/11 12:25:36;;;;;;;0.85;0.10;;;20.30;56.20;;;;;;5091337;28;20048;-55
2022/11/11 12:28:37;;;;;;;0.52;0.10;;;20.50;55.90;;;;;;5091800;28;20520;-51
2022/11/11 12:31:31;;;;;;;0.88;0.20;;;20.60;55.70;;;;;;5091878;28;20054;-53
2022/11/11 12:34:35;;;;;;;1.27;0.20;;;20.70;55.50;;;;;;5091927;28;20511;-54
2022/11/11 12:37:27;;;;;;;2.58;0.10;;;20.80;55.30;;;;;;5091134;28;20032;-54
2022/11/11 12:40:24;;;;;;;0.68;0.10;;;20.90;55.10;;;;;;5091443;28;20156;-53
2022/11/11 12:43:17;;;;;;;0.90;0.10;;;21.00;54.80;;;;;;5073479;28;20055;-53
2022/11/11 12:46:15;;;;;;;0.73;0.35;;;21.10;54.60;;;;;;5107795;28;20527;-51
2022/11/11 12:49:16;;;;;;;0.30;0.10;;;21.30;54.40;;;;;;5111662;28;20048;-51
2022/11/11 12:52:16;;;;;;;0.77;0.10;;;21.30;54.20;;;;;;5110972;28;20083;-52
2022/11/11 12:55:13;;;;;;;1.33;0.10;;;21.40;54.00;;;;;;5112895;27;20039;-51
2022/11/11 12:58:14;;;;;;;1.13;0.15;;;21.50;53.90;;;;;;5111008;28;20071;-51
2022/11/11 13:01:18;;;;;;;1.30;0.10;;;21.60;53.70;;;;;;5111157;28;20040;-49
2022/11/11 13:04:28;;;;;;;1.95;0.10;;;21.70;53.60;;;;;;5111031;28;20047;-53
2022/11/11 13:07:50;;;;;;;0.10;0.10;;;21.80;53.50;;;;;;5110749;28;20040;-53
2022/11/11 13:10:45;;;;;;;2.17;0.10;;;21.90;53.40;;;;;;5118247;27;20059;-53
2022/11/11 13:13:56;;;;;;;0.30;0.10;;;21.90;53.30;;;;;;5090670;28;20119;-54
2022/11/11 13:16:43;;;;;;;0.55;0.10;;;22.00;53.10;;;;;;5090636;28;20117;-53
2022/11/11 13:19:36;;;;;;;0.20;0.10;;;22.10;53.00;;;;;;5090711;28;20052;-52
2022/11/11 13:22:24;;;;;;;0.80;0.10;;;22.20;52.90;;;;;;5090015;28;20040;-49
2022/11/11 13:25:14;;;;;;;2.42;0.20;;;22.20;52.80;;;;;;5089741;28;20051;-54
2022/11/11 13:28:05;;;;;;;0.90;0.40;;;22.30;52.60;;;;;;5090140;28;20059;-54
2022/11/11 13:31:12;;;;;;;0.15;0.10;;;22.30;52.40;;;;;;5090207;28;20055;-54
2022/11/11 13:34:04;;;;;;;0.55;0.10;;;22.40;52.30;;;;;;5090359;28;20047;-55
2022/11/11 13:36:53;;;;;;;1.05;0.15;;;22.50;52.30;;;;;;5089916;28;20048;-49
2022/11/11 13:39:44;;;;;;;0.20;0.10;;;22.50;52.10;;;;;;5089802;28;20072;-52
2022/11/11 13:42:36;;;;;;;0.22;0.10;;;22.60;52.00;;;;;;5092214;28;20073;-52
2022/11/11 13:45:27;;;;;;;3.70;0.40;;;22.60;51.90;;;;;;5102257;27;20044;-54
2022/11/11 13:48:21;;;;;;;1.25;0.10;;;22.70;51.80;;;;;;5131203;27;20035;-55
2022/11/11 13:51:23;;;;;;;0.30;0.10;;;22.80;51.70;;;;;;5128141;27;20088;-50
2022/11/11 13:54:24;;;;;;;1.05;0.10;;;22.80;51.50;;;;;;5110492;28;20081;-53
2022/11/11 13:57:20;;;;;;;0.52;0.32;;;22.90;51.40;;;;;;5110083;28;20530;-53
2022/11/11 14:00:23;;;;;;;0.10;0.10;;;23.00;51.30;;;;;;5106141;28;20048;-55
2022/11/11 14:03:44;;;;;;;0.40;0.10;;;23.00;51.20;;;;;;5089953;28;20047;-52
2022/11/11 14:06:36;;;;;;;0.80;0.20;;;23.10;51.00;;;;;;5089626;28;20520;-52
2022/11/11 14:10:07;;;;;;;1.98;0.10;;;23.00;50.90;;;;;;5089818;28;20504;-50
2022/11/11 14:12:55;;;;;;;1.02;0.15;;;23.20;50.80;;;;;;5089720;28;20044;-51
2022/11/11 14:15:43;;;;;;;1.98;0.10;;;23.20;50.70;;;;;;5102760;28;20048;-50
2022/11/11 14:18:47;;;;;;;0.50;0.10;;;23.20;50.50;;;;;;5110141;28;20381;-54
2022/11/11 14:21:53;;;;;;;0.63;0.10;;;23.30;50.40;;;;;;5109624;28;20043;-52
2022/11/11 14:24:41;;;;;;;2.17;0.43;;;23.30;50.30;;;;;;5109373;28;20504;-52
2022/11/11 14:27:31;;;;;;;1.02;0.10;;;23.30;50.20;;;;;;5109712;28;20059;-54
2022/11/11 14:30:47;;;;;;;1.50;0.20;;;23.40;50.20;;;;;;5109932;28;20123;-49
2022/11/11 14:33:49;;;;;;;0.10;0.10;;;23.40;50.00;;;;;;5046562;28;20148;-49
2022/11/11 14:36:42;;;;;;;1.58;0.10;;;23.40;49.90;;;;;;5046151;28;20052;-48
2022/11/11 14:39:40;;;;;;;2.05;1.20;;;23.40;49.90;;;;;;5046505;28;20049;-50
2022/11/11 14:42:47;;;;;;;1.15;0.10;;;23.40;49.80;;;;;;5045430;28;20122;-53
2022/11/11 14:46:04;;;;;;;0.80;0.10;;;23.40;49.70;;;;;;5046544;28;20136;-54
2022/11/11 14:48:58;;;;;;;0.43;0.10;;;23.40;49.60;;;;;;5048930;28;20054;-52
2022/11/11 14:52:01;;;;;;;2.40;0.20;;;23.30;49.60;;;;;;5033653;28;20045;-53
2022/11/11 14:55:05;;;;;;;0.40;0.10;;;23.30;49.40;;;;;;5046116;28;20226;-55
2022/11/11 14:57:57;;;;;;;0.10;0.10;;;23.30;49.40;;;;;;5045713;28;20417;-50
2022/11/11 15:00:48;;;;;;;0.25;0.15;;;23.20;49.30;;;;;;5045980;28;20057;-52
2022/11/11 15:03:38;;;;;;;1.08;0.25;;;23.30;49.40;;;;;;5045542;28;20139;-52
2022/11/11 15:06:28;;;;;;;1.00;0.10;;;23.20;49.20;;;;;;5049408;28;20076;-51
2022/11/11 15:09:31;;;;;;;0.80;0.30;;;23.20;49.30;;;;;;5109118;28;20043;-54
2022/11/11 15:12:34;;;;;;;1.17;0.40;;;23.20;48.90;;;;;;5108648;28;20044;-53
2022/11/11 15:15:25;;;;;;;0.68;0.40;;;23.20;48.60;;;;;;5108765;28;20044;-51
2022/11/11 15:18:26;;;;;;;0.55;0.20;;;23.10;48.50;;;;;;5108679;28;20040;-53
2022/11/11 15:21:19;;;;;;;2.13;0.40;;;23.10;48.40;;;;;;5108987;28;20051;-52
2022/11/11 15:24:22;;;;;;;0.52;0.13;;;23.00;48.30;;;;;;5108847;28;20048;-54
2022/11/11 15:27:22;;;;;;;1.17;0.52;;;23.00;48.30;;;;;;5108743;28;20062;-53
2022/11/11 15:30:13;;;;;;;1.83;0.10;;;22.90;48.20;;;;;;5090743;28;20050;-51
2022/11/11 15:33:08;;;;;;;0.25;0.10;;;22.90;48.30;;;;;;5108506;28;20044;-51
2022/11/11 15:36:08;;;;;;;0.63;0.10;;;22.80;48.20;;;;;;5108812;28;20132;-53
2022/11/11 15:38:55;;;;;;;1.05;0.20;;;22.80;48.20;;;;;;5094747;28;20040;-53
2022/11/11 15:41:43;;;;;;;0.65;0.20;;;22.70;48.20;;;;;;5108740;28;20119;-51
2022/11/11 15:44:31;;;;;;;0.77;0.10;;;22.70;48.20;;;;;;5108455;28;20046;-50
2022/11/11 15:47:21;;;;;;;0.68;0.10;;;22.60;48.30;;;;;;5108166;28;20048;-51
2022/11/11 15:50:17;;;;;;;0.20;0.10;;;22.60;48.90;;;;;;5108848;28;20035;-50
2022/11/11 15:53:03;;;;;;;2.03;0.20;;;22.60;48.40;;;;;;5109044;28;20059;-48
2022/11/11 15:55:53;;;;;;;0.68;0.10;;;22.50;48.40;;;;;;5112648;28;20051;-52
2022/11/11 15:58:38;;;;;;;1.20;0.40;;;22.50;48.40;;;;;;5112635;28;20392;-49
2022/11/11 16:01:26;;;;;;;2.40;0.20;;;22.40;48.50;;;;;;5112409;28;20044;-51